createdAt,value
2017-10-01T00:04:12.647Z,27.13
2017-10-01T00:09:15.856Z,28.87
2017-10-01T00:14:19.057Z,19.50
2017-10-01T00:19:22.251Z,25.03
2017-10-01T00:24:26.507Z,24.93
2017-10-01T00:29:29.798Z,25.93
2017-10-01T00:34:33.014Z,23.70
2017-10-01T00:39:37.053Z,25.63
2017-10-01T00:44:40.272Z,22.37
2017-10-01T00:49:43.471Z,23.73
2017-10-01T00:54:46.687Z,23.93
2017-10-01T00:59:49.844Z,21.87
2017-10-01T01:04:53.224Z,139.87
2017-10-01T01:09:56.427Z,20.77
2017-10-01T01:15:00.409Z,23.53
2017-10-01T01:20:03.594Z,23.73
2017-10-01T01:25:06.778Z,18.03
2017-10-01T01:30:10.730Z,21.40
2017-10-01T01:35:13.938Z,22.98
2017-10-01T01:40:17.118Z,17.50
2017-10-01T01:45:20.312Z,24.53
2017-10-01T01:50:24.277Z,20.03
2017-10-01T01:55:27.477Z,23.20
2017-10-01T02:00:30.687Z,20.70
2017-10-01T02:05:33.909Z,19.80
2017-10-01T02:10:37.081Z,15.80
2017-10-01T02:15:40.456Z,18.67
2017-10-01T02:20:43.662Z,20.67
2017-10-01T02:25:46.842Z,26.50
2017-10-01T02:30:50.017Z,20.57
2017-10-01T02:35:53.437Z,23.93
2017-10-01T02:40:56.618Z,22.42
2017-10-01T02:46:00.559Z,28.30
2017-10-01T02:51:03.732Z,25.95
2017-10-01T02:56:06.958Z,23.50
2017-10-01T03:01:10.221Z,26.03
2017-10-01T03:06:13.377Z,24.37
2017-10-01T03:11:16.636Z,23.90
2017-10-01T03:16:19.801Z,29.50
2017-10-01T03:21:22.989Z,24.13
2017-10-01T03:26:26.171Z,23.33
2017-10-01T03:31:29.344Z,23.87
2017-10-01T03:36:32.534Z,20.23
2017-10-01T03:41:35.775Z,30.60
2017-10-01T03:46:38.950Z,25.37
2017-10-01T03:51:42.144Z,22.92
2017-10-01T03:56:45.294Z,19.33
2017-10-01T04:01:48.480Z,20.90
2017-10-01T04:06:51.669Z,24.10
2017-10-01T04:11:54.867Z,21.13
2017-10-01T04:16:58.076Z,24.53
2017-10-01T04:22:01.257Z,23.33
2017-10-01T04:27:05.202Z,23.87
2017-10-01T04:32:08.468Z,22.27
2017-10-01T04:37:11.638Z,22.07
2017-10-01T04:42:14.825Z,20.60
2017-10-01T04:47:18.010Z,22.20
2017-10-01T04:52:21.213Z,31.23
2017-10-01T04:57:25.182Z,22.73
2017-10-01T05:02:28.404Z,18.17
2017-10-01T05:07:31.611Z,25.67
2017-10-01T05:12:34.796Z,26.57
2017-10-01T05:17:37.977Z,23.03
2017-10-01T05:22:41.178Z,30.45
2017-10-01T05:27:44.556Z,27.83
2017-10-01T05:32:47.849Z,40.87
2017-10-01T05:37:51.042Z,47.67
2017-10-01T05:42:54.222Z,54.85
2017-10-01T05:47:57.402Z,67.03
2017-10-01T05:53:01.362Z,53.00
2017-10-01T05:58:04.656Z,58.97
2017-10-01T06:03:07.849Z,51.83
2017-10-01T06:08:11.050Z,50.93
2017-10-01T06:13:15.000Z,40.45
2017-10-01T06:18:18.306Z,48.47
2017-10-01T06:23:21.502Z,61.37
2017-10-01T06:28:24.692Z,62.53
2017-10-01T06:33:28.641Z,62.90
2017-10-01T06:38:31.881Z,48.97
2017-10-01T06:43:35.069Z,68.20
2017-10-01T06:48:38.412Z,47.10
2017-10-01T06:53:41.593Z,48.53
2017-10-01T06:58:44.829Z,50.97
2017-10-01T07:03:48.076Z,50.43
2017-10-01T07:08:51.266Z,45.83
2017-10-01T07:13:55.272Z,41.87
2017-10-01T07:18:58.486Z,35.73
2017-10-01T07:24:02.542Z,34.88
2017-10-01T07:29:05.755Z,29.73
2017-10-01T07:34:08.961Z,19.20
2017-10-01T07:39:12.204Z,23.07
2017-10-01T07:44:15.402Z,19.70
2017-10-01T07:49:18.618Z,20.47
2017-10-01T07:54:21.838Z,21.07
2017-10-01T07:59:25.025Z,23.87
2017-10-01T08:04:29.078Z,21.40
2017-10-01T08:09:32.255Z,16.33
2017-10-01T08:14:35.674Z,20.73
2017-10-01T08:19:39.048Z,18.00
2017-10-01T08:24:42.262Z,14.43
2017-10-01T08:29:45.905Z,12.50
2017-10-01T08:34:49.178Z,18.20
2017-10-01T08:39:52.442Z,13.50
2017-10-01T08:44:55.626Z,15.97
2017-10-01T08:49:58.822Z,12.53
2017-10-01T08:55:02.103Z,12.23
2017-10-01T09:00:05.289Z,14.30
2017-10-01T09:05:09.317Z,10.47
2017-10-01T09:10:13.318Z,11.43
2017-10-01T09:15:16.502Z,10.60
2017-10-01T09:20:19.684Z,7.20
2017-10-01T09:25:22.905Z,8.13
2017-10-01T09:30:26.102Z,13.30
2017-10-01T09:35:29.301Z,9.30
2017-10-01T09:40:37.178Z,8.33
2017-10-01T09:45:40.574Z,6.73
2017-10-01T09:50:43.769Z,8.87
2017-10-01T09:55:47.033Z,9.97
2017-10-01T10:00:50.502Z,10.63
2017-10-01T10:05:53.727Z,10.10
2017-10-01T10:10:57.712Z,6.93
2017-10-01T10:16:00.938Z,12.40
2017-10-01T10:21:04.425Z,18.73
2017-10-01T10:26:07.640Z,10.20
2017-10-01T10:31:10.850Z,10.97
2017-10-01T10:36:14.271Z,12.23
2017-10-01T10:41:17.481Z,11.60
2017-10-01T10:46:20.666Z,16.97
2017-10-01T10:51:23.853Z,9.90
2017-10-01T10:56:27.123Z,10.67
2017-10-01T11:01:30.436Z,10.73
2017-10-01T11:06:34.465Z,14.23
2017-10-01T11:11:38.469Z,13.90
2017-10-01T11:16:42.466Z,19.87
2017-10-01T11:21:45.863Z,15.13
2017-10-01T11:26:49.074Z,13.47
2017-10-01T11:31:52.259Z,12.70
2017-10-01T11:36:55.478Z,14.57
2017-10-01T11:41:58.905Z,15.83
2017-10-01T11:47:02.204Z,13.83
2017-10-01T11:52:05.514Z,13.20
2017-10-01T11:57:08.877Z,14.20
2017-10-01T12:02:12.863Z,13.07
2017-10-01T12:07:16.086Z,12.10
2017-10-01T12:12:20.073Z,18.40
2017-10-01T12:17:23.283Z,14.20
2017-10-01T12:22:26.483Z,16.70
2017-10-01T12:27:29.850Z,14.20
2017-10-01T12:32:33.813Z,14.47
2017-10-01T12:37:38.514Z,15.00
2017-10-01T12:42:42.543Z,14.07
2017-10-01T12:47:46.622Z,12.20
2017-10-01T12:52:49.854Z,15.10
2017-10-01T12:57:53.077Z,15.83
2017-10-01T13:02:57.048Z,16.73
2017-10-01T13:08:00.401Z,16.47
2017-10-01T13:13:03.710Z,13.60
2017-10-01T13:18:06.904Z,10.73
2017-10-01T13:23:10.209Z,17.40
2017-10-01T13:28:13.679Z,11.03
2017-10-01T13:33:16.939Z,14.13
2017-10-01T13:38:20.248Z,11.07
2017-10-01T13:43:23.446Z,13.13
2017-10-01T13:48:26.916Z,17.03
2017-10-01T13:53:30.137Z,15.32
2017-10-01T13:58:34.069Z,13.27
2017-10-01T14:03:41.234Z,15.47
2017-10-01T14:08:44.967Z,13.77
2017-10-01T14:13:48.165Z,14.63
2017-10-01T14:18:51.401Z,22.00
2017-10-01T14:23:54.905Z,18.37
2017-10-01T14:28:58.170Z,16.93
2017-10-01T14:34:01.523Z,20.07
2017-10-01T14:39:04.742Z,13.90
2017-10-01T14:44:08.678Z,17.43
2017-10-01T14:49:11.955Z,19.43
2017-10-01T14:54:15.184Z,14.83
2017-10-01T14:59:18.464Z,21.10
2017-10-01T15:04:21.704Z,19.80
2017-10-01T15:09:24.986Z,26.27
2017-10-01T15:14:28.246Z,28.50
2017-10-01T15:19:31.465Z,23.00
2017-10-01T15:24:35.499Z,19.00
2017-10-01T15:29:38.763Z,16.60
2017-10-01T15:34:41.981Z,34.00
2017-10-01T15:39:45.228Z,30.10
2017-10-01T15:44:48.443Z,24.00
2017-10-01T15:49:51.658Z,20.33
2017-10-01T15:54:54.889Z,21.73
2017-10-01T15:59:58.130Z,25.30
2017-10-01T16:05:01.341Z,28.00
2017-10-01T16:10:05.421Z,28.90
2017-10-01T16:15:08.675Z,24.23
2017-10-01T16:20:12.656Z,19.60
2017-10-01T16:25:15.850Z,18.90
2017-10-01T16:30:19.087Z,24.83
2017-10-01T16:35:22.357Z,31.93
2017-10-01T16:40:25.582Z,22.43
2017-10-01T16:45:29.342Z,24.73
2017-10-01T16:50:32.711Z,24.90
2017-10-01T16:55:36.072Z,24.48
2017-10-01T17:00:39.266Z,22.30
2017-10-01T17:05:42.509Z,27.87
2017-10-01T17:10:45.774Z,27.10
2017-10-01T17:15:49.000Z,25.33
2017-10-01T17:20:52.192Z,25.50
2017-10-01T17:25:55.406Z,27.03
2017-10-01T17:30:59.750Z,26.57
2017-10-01T17:36:03.792Z,25.27
2017-10-01T17:41:07.043Z,25.07
2017-10-01T17:46:10.280Z,27.17
2017-10-01T17:51:13.772Z,39.43
2017-10-01T17:56:17.013Z,24.77
2017-10-01T18:01:21.071Z,29.37
2017-10-01T18:06:24.267Z,30.53
2017-10-01T18:11:27.514Z,28.90
2017-10-01T18:16:30.721Z,23.30
2017-10-01T18:21:33.938Z,23.47
2017-10-01T18:26:37.178Z,28.30
2017-10-01T18:31:41.296Z,26.03
2017-10-01T18:36:45.425Z,34.03
2017-10-01T18:41:49.412Z,26.73
2017-10-01T18:46:52.694Z,26.53
2017-10-01T18:51:55.915Z,28.67
2017-10-01T18:56:59.126Z,35.57
2017-10-01T19:02:02.416Z,33.27
2017-10-01T19:07:07.140Z,25.07
2017-10-01T19:12:12.370Z,29.10
2017-10-01T19:17:15.598Z,29.37
2017-10-01T19:22:19.722Z,26.33
2017-10-01T19:27:23.675Z,21.90
2017-10-01T19:32:27.017Z,31.60
2017-10-01T19:37:30.310Z,26.23
2017-10-01T19:42:34.206Z,28.93
2017-10-01T19:47:37.475Z,29.40
2017-10-01T19:52:43.116Z,26.33
2017-10-01T19:57:46.335Z,35.10
2017-10-01T20:02:49.571Z,25.60
2017-10-01T20:07:53.557Z,27.13
2017-10-01T20:12:56.776Z,32.78
2017-10-01T20:17:59.993Z,30.77
2017-10-01T20:23:03.201Z,29.10
2017-10-01T20:28:06.496Z,27.97
2017-10-01T20:33:09.701Z,30.30
2017-10-01T20:38:12.905Z,32.40
2017-10-01T20:43:16.121Z,31.47
2017-10-01T20:48:19.318Z,30.80
2017-10-01T20:53:22.536Z,30.00
2017-10-01T20:58:25.706Z,26.80
2017-10-01T21:03:28.958Z,28.50
2017-10-01T21:08:32.173Z,29.27
2017-10-01T21:13:35.382Z,28.23
2017-10-01T21:18:39.370Z,26.63
2017-10-01T21:23:42.567Z,32.83
2017-10-01T21:28:45.772Z,28.87
2017-10-01T21:33:48.962Z,32.13
2017-10-01T21:38:52.181Z,27.47
2017-10-01T21:43:55.390Z,26.33
2017-10-01T21:48:58.719Z,28.70
2017-10-01T21:54:01.909Z,27.00
2017-10-01T21:59:05.208Z,25.20
2017-10-01T22:04:08.401Z,26.87
2017-10-01T22:09:11.728Z,28.85
2017-10-01T22:14:14.936Z,26.33
2017-10-01T22:19:18.256Z,32.43
2017-10-01T22:24:21.563Z,33.87
2017-10-01T22:29:24.757Z,34.43
2017-10-01T22:34:28.007Z,28.27
2017-10-01T22:39:31.975Z,22.30
2017-10-01T22:44:35.190Z,26.30
2017-10-01T22:49:38.390Z,28.33
2017-10-01T22:54:41.590Z,31.07
2017-10-01T22:59:44.793Z,28.23
2017-10-01T23:04:48.183Z,22.33
2017-10-01T23:09:51.375Z,26.13
2017-10-01T23:14:55.462Z,30.53
2017-10-01T23:19:58.681Z,26.67
2017-10-01T23:25:01.875Z,34.97
2017-10-01T23:30:05.067Z,25.23
2017-10-01T23:35:08.271Z,23.67
2017-10-01T23:40:11.471Z,28.20
2017-10-01T23:45:14.742Z,23.80
2017-10-01T23:50:18.734Z,26.80
2017-10-01T23:55:21.938Z,24.20
